sensor_id;sensor_type;location;lat;lon;timestamp;pressure;altitude;pressure_sealevel;temperature;humidity
83023;BME280;72838;51.820;4.260;2023-09-30T00:02:11;102571.75;;;14.14;93.04
83023;BME280;72838;51.820;4.260;2023-09-30T00:04:37;102590.09;;;14.05;92.96
83023;BME280;72838;51.820;4.260;2023-09-30T00:07:03;102578.56;;;14.06;92.74
83023;BME280;72838;51.820;4.260;2023-09-30T00:09:37;102527.22;;;13.76;92.50
83023;BME280;72838;51.820;4.260;2023-09-30T00:12:12;102557.44;;;13.84;93.85
83023;BME280;72838;51.820;4.260;2023-09-30T00:14:38;102586.00;;;14.23;93.24
83023;BME280;72838;51.820;4.260;2023-09-30T00:17:03;102581.69;;;14.22;93.14
83023;BME280;72838;51.820;4.260;2023-09-30T00:19:29;102572.44;;;14.05;93.47
83023;BME280;72838;51.820;4.260;2023-09-30T00:21:58;102580.97;;;14.09;93.48
83023;BME280;72838;51.820;4.260;2023-09-30T00:24:25;102545.56;;;13.78;93.42
83023;BME280;72838;51.820;4.260;2023-09-30T00:26:50;102608.56;;;14.05;93.63
83023;BME280;72838;51.820;4.260;2023-09-30T00:29:16;102593.81;;;14.02;94.03
83023;BME280;72838;51.820;4.260;2023-09-30T00:31:43;102600.66;;;14.05;93.38
83023;BME280;72838;51.820;4.260;2023-09-30T00:34:09;102602.78;;;14.00;93.50
83023;BME280;72838;51.820;4.260;2023-09-30T00:36:35;102616.13;;;13.98;94.38
83023;BME280;72838;51.820;4.260;2023-09-30T00:39:00;102601.94;;;13.99;93.71
83023;BME280;72838;51.820;4.260;2023-09-30T00:41:35;102548.41;;;13.64;93.42
83023;BME280;72838;51.820;4.260;2023-09-30T00:44:02;102614.78;;;14.04;93.59
83023;BME280;72838;51.820;4.260;2023-09-30T00:46:35;102585.50;;;13.85;94.71
83023;BME280;72838;51.820;4.260;2023-09-30T00:49:02;102615.41;;;13.96;94.67
83023;BME280;72838;51.820;4.260;2023-09-30T00:51:28;102621.25;;;13.89;94.24
83023;BME280;72838;51.820;4.260;2023-09-30T00:53:57;102617.06;;;13.86;94.65
83023;BME280;72838;51.820;4.260;2023-09-30T00:56:25;102628.56;;;13.85;94.29
83023;BME280;72838;51.820;4.260;2023-09-30T00:58:51;102627.44;;;13.65;94.57
83023;BME280;72838;51.820;4.260;2023-09-30T01:01:18;102629.03;;;13.79;94.82
83023;BME280;72838;51.820;4.260;2023-09-30T01:03:46;102655.06;;;13.84;94.78
83023;BME280;72838;51.820;4.260;2023-09-30T01:06:12;102640.09;;;13.95;95.63
83023;BME280;72838;51.820;4.260;2023-09-30T01:08:37;102642.50;;;13.98;94.83
83023;BME280;72838;51.820;4.260;2023-09-30T01:11:03;102644.06;;;14.01;94.59
83023;BME280;72838;51.820;4.260;2023-09-30T01:13:36;102633.13;;;14.05;95.25
83023;BME280;72838;51.820;4.260;2023-09-30T01:16:06;102632.03;;;13.97;94.77
83023;BME280;72838;51.820;4.260;2023-09-30T01:18:31;102627.16;;;13.92;94.80
83023;BME280;72838;51.820;4.260;2023-09-30T01:21:01;102612.13;;;13.82;94.89
83023;BME280;72838;51.820;4.260;2023-09-30T01:23:32;102590.97;;;13.59;95.61
83023;BME280;72838;51.820;4.260;2023-09-30T01:26:03;102622.31;;;13.75;95.38
83023;BME280;72838;51.820;4.260;2023-09-30T01:28:33;102650.72;;;13.82;95.89
83023;BME280;72838;51.820;4.260;2023-09-30T01:30:58;102630.09;;;13.65;95.98
83023;BME280;72838;51.820;4.260;2023-09-30T01:33:24;102628.44;;;13.87;95.70
83023;BME280;72838;51.820;4.260;2023-09-30T01:36:03;102636.72;;;13.93;95.84
83023;BME280;72838;51.820;4.260;2023-09-30T01:38:28;102629.16;;;13.89;95.62
83023;BME280;72838;51.820;4.260;2023-09-30T01:40:53;102639.53;;;14.03;95.25
83023;BME280;72838;51.820;4.260;2023-09-30T01:43:22;102626.53;;;14.00;96.03
83023;BME280;72838;51.820;4.260;2023-09-30T01:45:47;102630.03;;;14.00;95.74
83023;BME280;72838;51.820;4.260;2023-09-30T01:48:13;102633.63;;;13.99;96.22
83023;BME280;72838;51.820;4.260;2023-09-30T01:50:39;102624.75;;;14.00;95.77
83023;BME280;72838;51.820;4.260;2023-09-30T01:53:07;102622.69;;;13.93;95.27
83023;BME280;72838;51.820;4.260;2023-09-30T01:55:34;102605.38;;;13.66;95.95
83023;BME280;72838;51.820;4.260;2023-09-30T01:58:00;102599.97;;;13.57;96.05
83023;BME280;72838;51.820;4.260;2023-09-30T02:00:29;102641.28;;;13.80;95.36
83023;BME280;72838;51.820;4.260;2023-09-30T02:02:55;102637.28;;;13.74;95.49
83023;BME280;72838;51.820;4.260;2023-09-30T02:05:22;102627.53;;;13.64;96.57
83023;BME280;72838;51.820;4.260;2023-09-30T02:07:48;102638.72;;;13.67;96.58
83023;BME280;72838;51.820;4.260;2023-09-30T02:10:13;102630.41;;;13.61;96.93
83023;BME280;72838;51.820;4.260;2023-09-30T02:12:39;102626.84;;;13.73;96.34
83023;BME280;72838;51.820;4.260;2023-09-30T02:15:08;102607.31;;;13.41;96.05
83023;BME280;72838;51.820;4.260;2023-09-30T02:17:33;102577.34;;;13.31;95.40
83023;BME280;72838;51.820;4.260;2023-09-30T02:19:59;102592.41;;;13.18;95.50
83023;BME280;72838;51.820;4.260;2023-09-30T02:22:33;102619.69;;;13.40;95.83
83023;BME280;72838;51.820;4.260;2023-09-30T02:24:59;102600.03;;;13.10;96.47
83023;BME280;72838;51.820;4.260;2023-09-30T02:27:24;102621.22;;;13.32;96.06
83023;BME280;72838;51.820;4.260;2023-09-30T02:29:52;102626.94;;;13.26;96.16
83023;BME280;72838;51.820;4.260;2023-09-30T02:32:17;102605.22;;;12.98;96.33
83023;BME280;72838;51.820;4.260;2023-09-30T02:34:43;102611.31;;;13.12;96.21
83023;BME280;72838;51.820;4.260;2023-09-30T02:37:09;102624.31;;;12.89;96.24
83023;BME280;72838;51.820;4.260;2023-09-30T02:39:35;102639.09;;;13.16;95.91
83023;BME280;72838;51.820;4.260;2023-09-30T02:42:02;102628.44;;;13.17;96.14
83023;BME280;72838;51.820;4.260;2023-09-30T02:44:30;102609.53;;;13.23;97.05
83023;BME280;72838;51.820;4.260;2023-09-30T02:47:13;102605.34;;;13.21;96.82
83023;BME280;72838;51.820;4.260;2023-09-30T02:49:42;102609.03;;;13.42;96.74
83023;BME280;72838;51.820;4.260;2023-09-30T02:52:07;102582.19;;;13.13;97.39
83023;BME280;72838;51.820;4.260;2023-09-30T02:54:32;102609.34;;;13.37;96.87
83023;BME280;72838;51.820;4.260;2023-09-30T02:56:58;102631.16;;;13.39;96.47
83023;BME280;72838;51.820;4.260;2023-09-30T02:59:23;102590.72;;;13.17;96.84
83023;BME280;72838;51.820;4.260;2023-09-30T03:01:48;102615.22;;;13.30;96.45
83023;BME280;72838;51.820;4.260;2023-09-30T03:04:14;102581.13;;;13.16;96.19
83023;BME280;72838;51.820;4.260;2023-09-30T03:06:44;102600.19;;;13.19;96.59
83023;BME280;72838;51.820;4.260;2023-09-30T03:09:09;102598.22;;;13.10;96.58
83023;BME280;72838;51.820;4.260;2023-09-30T03:11:37;102587.13;;;13.18;96.03
83023;BME280;72838;51.820;4.260;2023-09-30T03:14:03;102610.53;;;13.33;96.90
83023;BME280;72838;51.820;4.260;2023-09-30T03:16:28;102599.22;;;13.20;97.28
83023;BME280;72838;51.820;4.260;2023-09-30T03:18:56;102588.66;;;13.09;96.52
83023;BME280;72838;51.820;4.260;2023-09-30T03:21:24;102608.44;;;13.15;96.68
83023;BME280;72838;51.820;4.260;2023-09-30T03:23:58;102570.94;;;12.75;95.90
83023;BME280;72838;51.820;4.260;2023-09-30T03:26:23;102588.00;;;12.82;96.08
83023;BME280;72838;51.820;4.260;2023-09-30T03:28:49;102624.31;;;13.37;97.53
83023;BME280;72838;51.820;4.260;2023-09-30T03:31:19;102606.34;;;13.31;97.28
83023;BME280;72838;51.820;4.260;2023-09-30T03:33:52;102596.25;;;13.25;97.04
83023;BME280;72838;51.820;4.260;2023-09-30T03:36:25;102609.47;;;13.36;97.73
83023;BME280;72838;51.820;4.260;2023-09-30T03:38:53;102611.13;;;13.26;97.39
83023;BME280;72838;51.820;4.260;2023-09-30T03:41:24;102613.19;;;13.33;97.68
83023;BME280;72838;51.820;4.260;2023-09-30T03:43:50;102615.88;;;13.21;97.59
83023;BME280;72838;51.820;4.260;2023-09-30T03:46:16;102567.06;;;13.04;97.41
83023;BME280;72838;51.820;4.260;2023-09-30T03:48:42;102590.50;;;13.20;97.88
83023;BME280;72838;51.820;4.260;2023-09-30T03:51:21;102636.09;;;13.44;97.97
83023;BME280;72838;51.820;4.260;2023-09-30T03:53:50;102590.63;;;13.29;97.49
83023;BME280;72838;51.820;4.260;2023-09-30T03:56:16;102601.97;;;13.19;97.30
83023;BME280;72838;51.820;4.260;2023-09-30T03:58:42;102581.50;;;12.98;97.17
83023;BME280;72838;51.820;4.260;2023-09-30T04:01:09;102622.59;;;13.25;97.60
83023;BME280;72838;51.820;4.260;2023-09-30T04:03:44;102599.47;;;13.17;97.88
83023;BME280;72838;51.820;4.260;2023-09-30T04:06:12;102577.22;;;12.85;97.34
83023;BME280;72838;51.820;4.260;2023-09-30T04:08:39;102610.28;;;13.25;96.86
83023;BME280;72838;51.820;4.260;2023-09-30T04:11:04;102623.31;;;13.16;97.20
83023;BME280;72838;51.820;4.260;2023-09-30T04:13:30;102556.31;;;12.71;97.10
83023;BME280;72838;51.820;4.260;2023-09-30T04:15:56;102601.41;;;13.02;97.72
83023;BME280;72838;51.820;4.260;2023-09-30T04:18:23;102582.41;;;12.86;97.44
83023;BME280;72838;51.820;4.260;2023-09-30T04:20:54;102622.38;;;13.04;97.30
83023;BME280;72838;51.820;4.260;2023-09-30T04:23:19;102601.56;;;12.88;97.20
83023;BME280;72838;51.820;4.260;2023-09-30T04:25:49;102568.38;;;12.50;96.92
83023;BME280;72838;51.820;4.260;2023-09-30T04:28:15;102563.69;;;12.42;97.14
83023;BME280;72838;51.820;4.260;2023-09-30T04:30:46;102601.72;;;12.74;97.32
83023;BME280;72838;51.820;4.260;2023-09-30T04:33:12;102615.50;;;12.78;96.90
83023;BME280;72838;51.820;4.260;2023-09-30T04:35:41;102615.81;;;12.73;96.57
83023;BME280;72838;51.820;4.260;2023-09-30T04:38:15;102603.38;;;12.52;96.82
83023;BME280;72838;51.820;4.260;2023-09-30T04:40:40;102621.22;;;12.72;97.16
83023;BME280;72838;51.820;4.260;2023-09-30T04:43:09;102597.13;;;12.53;96.71
83023;BME280;72838;51.820;4.260;2023-09-30T04:45:34;102643.53;;;12.66;96.88
83023;BME280;72838;51.820;4.260;2023-09-30T04:48:00;102639.34;;;12.64;96.47
83023;BME280;72838;51.820;4.260;2023-09-30T04:50:27;102605.91;;;12.41;96.78
83023;BME280;72838;51.820;4.260;2023-09-30T04:53:04;102597.06;;;12.29;96.32
83023;BME280;72838;51.820;4.260;2023-09-30T04:55:29;102648.88;;;12.41;96.08
83023;BME280;72838;51.820;4.260;2023-09-30T04:57:54;102634.00;;;12.53;96.22
83023;BME280;72838;51.820;4.260;2023-09-30T05:00:20;102632.53;;;12.36;96.05
83023;BME280;72838;51.820;4.260;2023-09-30T05:02:51;102617.06;;;12.44;96.66
83023;BME280;72838;51.820;4.260;2023-09-30T05:05:19;102628.88;;;12.39;96.37
83023;BME280;72838;51.820;4.260;2023-09-30T05:07:45;102642.66;;;12.42;96.23
83023;BME280;72838;51.820;4.260;2023-09-30T05:10:12;102628.25;;;12.35;96.79
83023;BME280;72838;51.820;4.260;2023-09-30T05:12:42;102639.28;;;12.40;97.80
83023;BME280;72838;51.820;4.260;2023-09-30T05:15:11;102648.75;;;12.43;97.11
83023;BME280;72838;51.820;4.260;2023-09-30T05:17:37;102641.59;;;12.45;96.71
83023;BME280;72838;51.820;4.260;2023-09-30T05:20:12;102595.84;;;12.22;97.34
83023;BME280;72838;51.820;4.260;2023-09-30T05:22:43;102628.88;;;12.39;96.94
83023;BME280;72838;51.820;4.260;2023-09-30T05:25:13;102632.34;;;12.39;96.97
83023;BME280;72838;51.820;4.260;2023-09-30T05:27:41;102622.31;;;12.44;97.15
83023;BME280;72838;51.820;4.260;2023-09-30T05:30:08;102595.59;;;12.38;97.24
83023;BME280;72838;51.820;4.260;2023-09-30T05:32:55;102609.09;;;12.33;97.06
83023;BME280;72838;51.820;4.260;2023-09-30T05:35:20;102646.28;;;12.65;96.88
83023;BME280;72838;51.820;4.260;2023-09-30T05:37:47;102644.06;;;12.71;97.37
83023;BME280;72838;51.820;4.260;2023-09-30T05:40:19;102639.31;;;12.76;97.67
83023;BME280;72838;51.820;4.260;2023-09-30T05:42:49;102607.75;;;12.64;97.98
83023;BME280;72838;51.820;4.260;2023-09-30T05:45:15;102665.72;;;12.87;98.03
83023;BME280;72838;51.820;4.260;2023-09-30T05:47:41;102650.88;;;12.86;98.05
83023;BME280;72838;51.820;4.260;2023-09-30T05:50:07;102645.94;;;12.82;97.44
83023;BME280;72838;51.820;4.260;2023-09-30T05:52:34;102654.78;;;12.81;97.51
83023;BME280;72838;51.820;4.260;2023-09-30T05:55:01;102655.22;;;12.75;97.73
83023;BME280;72838;51.820;4.260;2023-09-30T05:57:36;102584.25;;;12.37;98.15
83023;BME280;72838;51.820;4.260;2023-09-30T06:00:02;102649.16;;;12.62;97.44
83023;BME280;72838;51.820;4.260;2023-09-30T06:02:49;102641.91;;;12.53;97.55
83023;BME280;72838;51.820;4.260;2023-09-30T06:05:14;102650.75;;;12.52;97.38
83023;BME280;72838;51.820;4.260;2023-09-30T06:07:42;102628.44;;;12.45;97.32
83023;BME280;72838;51.820;4.260;2023-09-30T06:10:19;102628.53;;;12.43;97.14
83023;BME280;72838;51.820;4.260;2023-09-30T06:12:48;102604.03;;;12.30;97.71
83023;BME280;72838;51.820;4.260;2023-09-30T06:15:17;102649.66;;;12.67;97.73
83023;BME280;72838;51.820;4.260;2023-09-30T06:17:49;102660.91;;;12.69;98.57
83023;BME280;72838;51.820;4.260;2023-09-30T06:20:18;102650.84;;;12.50;98.74
83023;BME280;72838;51.820;4.260;2023-09-30T06:22:44;102667.66;;;12.73;98.05
83023;BME280;72838;51.820;4.260;2023-09-30T06:25:16;102670.06;;;12.76;98.38
83023;BME280;72838;51.820;4.260;2023-09-30T06:27:44;102681.53;;;12.87;98.63
83023;BME280;72838;51.820;4.260;2023-09-30T06:30:11;102689.50;;;12.98;98.27
83023;BME280;72838;51.820;4.260;2023-09-30T06:32:36;102733.56;;;13.09;98.25
83023;BME280;72838;51.820;4.260;2023-09-30T06:35:05;102699.06;;;13.12;98.36
83023;BME280;72838;51.820;4.260;2023-09-30T06:37:31;102700.66;;;13.15;98.17
83023;BME280;72838;51.820;4.260;2023-09-30T06:40:04;102682.78;;;12.94;98.29
83023;BME280;72838;51.820;4.260;2023-09-30T06:42:32;102706.34;;;13.21;98.62
83023;BME280;72838;51.820;4.260;2023-09-30T06:44:58;102654.66;;;12.95;98.17
83023;BME280;72838;51.820;4.260;2023-09-30T06:47:23;102653.56;;;12.97;98.53
83023;BME280;72838;51.820;4.260;2023-09-30T06:49:49;102700.78;;;13.13;98.20
83023;BME280;72838;51.820;4.260;2023-09-30T06:52:14;102712.63;;;13.31;98.46
83023;BME280;72838;51.820;4.260;2023-09-30T06:54:49;102689.94;;;13.05;98.70
83023;BME280;72838;51.820;4.260;2023-09-30T06:57:14;102722.72;;;13.37;99.17
83023;BME280;72838;51.820;4.260;2023-09-30T06:59:42;102678.13;;;13.11;99.03
83023;BME280;72838;51.820;4.260;2023-09-30T07:02:07;102738.81;;;13.45;99.51
83023;BME280;72838;51.820;4.260;2023-09-30T07:04:36;102726.69;;;13.43;99.12
83023;BME280;72838;51.820;4.260;2023-09-30T07:07:04;102742.06;;;13.72;98.97
83023;BME280;72838;51.820;4.260;2023-09-30T07:09:33;102739.94;;;13.77;98.09
83023;BME280;72838;51.820;4.260;2023-09-30T07:11:58;102723.53;;;13.61;98.24
83023;BME280;72838;51.820;4.260;2023-09-30T07:14:24;102709.75;;;13.58;98.01
83023;BME280;72838;51.820;4.260;2023-09-30T07:16:50;102726.25;;;13.72;99.09
83023;BME280;72838;51.820;4.260;2023-09-30T07:19:16;102735.59;;;13.76;98.55
83023;BME280;72838;51.820;4.260;2023-09-30T07:21:42;102736.13;;;13.82;98.18
83023;BME280;72838;51.820;4.260;2023-09-30T07:24:08;102736.97;;;13.82;98.22
83023;BME280;72838;51.820;4.260;2023-09-30T07:26:33;102732.69;;;13.92;99.05
83023;BME280;72838;51.820;4.260;2023-09-30T07:29:04;102715.94;;;13.80;98.57
83023;BME280;72838;51.820;4.260;2023-09-30T07:31:43;102713.97;;;13.95;97.79
83023;BME280;72838;51.820;4.260;2023-09-30T07:34:11;102729.28;;;14.25;96.86
83023;BME280;72838;51.820;4.260;2023-09-30T07:36:36;102691.34;;;14.15;97.51
83023;BME280;72838;51.820;4.260;2023-09-30T07:39:01;102736.53;;;14.45;96.36
83023;BME280;72838;51.820;4.260;2023-09-30T07:41:27;102745.47;;;14.66;97.03
83023;BME280;72838;51.820;4.260;2023-09-30T07:43:54;102704.75;;;14.57;95.57
83023;BME280;72838;51.820;4.260;2023-09-30T07:46:19;102712.19;;;14.64;95.06
83023;BME280;72838;51.820;4.260;2023-09-30T07:48:46;102739.94;;;14.80;94.36
83023;BME280;72838;51.820;4.260;2023-09-30T07:51:13;102730.22;;;14.81;95.69
83023;BME280;72838;51.820;4.260;2023-09-30T07:53:39;102729.00;;;14.85;95.32
83023;BME280;72838;51.820;4.260;2023-09-30T07:56:13;102725.75;;;14.92;94.35
83023;BME280;72838;51.820;4.260;2023-09-30T08:01:07;102704.72;;;14.91;93.53
83023;BME280;72838;51.820;4.260;2023-09-30T08:03:42;102707.88;;;14.96;93.64
83023;BME280;72838;51.820;4.260;2023-09-30T08:06:08;102715.16;;;14.92;93.32
83023;BME280;72838;51.820;4.260;2023-09-30T08:08:36;102669.22;;;14.73;92.99
83023;BME280;72838;51.820;4.260;2023-09-30T08:11:01;102713.00;;;14.97;92.39
83023;BME280;72838;51.820;4.260;2023-09-30T08:13:27;102704.72;;;15.02;93.70
83023;BME280;72838;51.820;4.260;2023-09-30T08:15:55;102676.59;;;14.90;92.95
83023;BME280;72838;51.820;4.260;2023-09-30T08:18:21;102669.88;;;14.86;93.10
83023;BME280;72838;51.820;4.260;2023-09-30T08:20:46;102651.03;;;14.90;93.29
83023;BME280;72838;51.820;4.260;2023-09-30T08:23:12;102704.19;;;15.19;93.13
83023;BME280;72838;51.820;4.260;2023-09-30T08:25:37;102725.19;;;15.31;92.01
83023;BME280;72838;51.820;4.260;2023-09-30T08:28:06;102701.91;;;15.25;91.73
83023;BME280;72838;51.820;4.260;2023-09-30T08:30:34;102696.97;;;15.21;91.58
83023;BME280;72838;51.820;4.260;2023-09-30T08:33:00;102697.94;;;15.31;92.75
83023;BME280;72838;51.820;4.260;2023-09-30T08:35:25;102721.94;;;15.50;91.78
83023;BME280;72838;51.820;4.260;2023-09-30T08:37:51;102694.19;;;15.33;92.15
83023;BME280;72838;51.820;4.260;2023-09-30T08:40:27;102771.44;;;15.59;90.85
83023;BME280;72838;51.820;4.260;2023-09-30T08:42:52;102736.72;;;15.53;90.49
83023;BME280;72838;51.820;4.260;2023-09-30T08:45:18;102742.09;;;15.62;90.04
83023;BME280;72838;51.820;4.260;2023-09-30T08:47:45;102746.06;;;15.68;90.97
83023;BME280;72838;51.820;4.260;2023-09-30T08:50:11;102770.59;;;15.70;90.68
83023;BME280;72838;51.820;4.260;2023-09-30T08:52:43;102758.09;;;15.92;90.71
83023;BME280;72838;51.820;4.260;2023-09-30T08:55:09;102769.13;;;15.97;91.07
83023;BME280;72838;51.820;4.260;2023-09-30T08:57:40;102754.88;;;15.89;89.99
83023;BME280;72838;51.820;4.260;2023-09-30T09:00:07;102773.44;;;16.09;89.01
83023;BME280;72838;51.820;4.260;2023-09-30T09:02:36;102783.69;;;16.03;88.64
83023;BME280;72838;51.820;4.260;2023-09-30T09:05:02;102788.00;;;16.04;88.49
83023;BME280;72838;51.820;4.260;2023-09-30T09:07:27;102810.72;;;16.06;89.84
83023;BME280;72838;51.820;4.260;2023-09-30T09:10:09;102790.13;;;16.10;90.21
83023;BME280;72838;51.820;4.260;2023-09-30T09:12:38;102789.38;;;16.19;89.16
83023;BME280;72838;51.820;4.260;2023-09-30T09:15:19;102798.59;;;16.25;88.41
83023;BME280;72838;51.820;4.260;2023-09-30T09:17:48;102805.41;;;16.38;86.61
83023;BME280;72838;51.820;4.260;2023-09-30T09:20:21;102807.34;;;16.36;88.09
83023;BME280;72838;51.820;4.260;2023-09-30T09:22:48;102810.31;;;16.43;86.75
83023;BME280;72838;51.820;4.260;2023-09-30T09:25:16;102776.69;;;16.43;85.87
83023;BME280;72838;51.820;4.260;2023-09-30T09:27:41;102736.47;;;16.29;85.98
83023;BME280;72838;51.820;4.260;2023-09-30T09:30:25;102775.75;;;16.44;86.58
83023;BME280;72838;51.820;4.260;2023-09-30T09:33:04;102770.94;;;16.79;87.38
83023;BME280;72838;51.820;4.260;2023-09-30T09:35:37;102766.22;;;16.83;87.08
83023;BME280;72838;51.820;4.260;2023-09-30T09:38:22;102779.72;;;17.10;85.82
83023;BME280;72838;51.820;4.260;2023-09-30T09:40:47;102829.94;;;17.42;85.83
83023;BME280;72838;51.820;4.260;2023-09-30T09:43:23;102748.22;;;17.26;84.25
83023;BME280;72838;51.820;4.260;2023-09-30T09:45:49;102777.13;;;17.39;83.39
83023;BME280;72838;51.820;4.260;2023-09-30T09:48:15;102792.47;;;17.75;83.15
83023;BME280;72838;51.820;4.260;2023-09-30T09:50:41;102832.28;;;17.94;82.95
83023;BME280;72838;51.820;4.260;2023-09-30T09:53:09;102796.38;;;18.00;80.67
83023;BME280;72838;51.820;4.260;2023-09-30T09:55:36;102806.16;;;18.28;81.80
83023;BME280;72838;51.820;4.260;2023-09-30T09:58:04;102770.63;;;18.19;80.96
83023;BME280;72838;51.820;4.260;2023-09-30T10:00:32;102792.19;;;18.45;79.69
83023;BME280;72838;51.820;4.260;2023-09-30T10:02:59;102776.50;;;18.51;78.84
83023;BME280;72838;51.820;4.260;2023-09-30T10:05:24;102765.56;;;18.54;77.46
83023;BME280;72838;51.820;4.260;2023-09-30T10:08:10;102768.06;;;18.66;77.80
83023;BME280;72838;51.820;4.260;2023-09-30T10:10:36;102765.97;;;18.96;77.04
83023;BME280;72838;51.820;4.260;2023-09-30T10:13:03;102768.03;;;19.02;76.51
83023;BME280;72838;51.820;4.260;2023-09-30T10:20:31;102724.97;;;19.16;74.72
83023;BME280;72838;51.820;4.260;2023-09-30T10:23:26;102766.66;;;19.70;74.13
83023;BME280;72838;51.820;4.260;2023-09-30T10:25:54;102776.63;;;19.51;71.73
83023;BME280;72838;51.820;4.260;2023-09-30T10:28:38;102780.75;;;19.63;70.97
83023;BME280;72838;51.820;4.260;2023-09-30T10:36:37;102760.31;;;19.89;69.66
83023;BME280;72838;51.820;4.260;2023-09-30T10:39:04;102773.44;;;20.00;68.63
83023;BME280;72838;51.820;4.260;2023-09-30T10:46:53;102728.03;;;20.09;69.35
83023;BME280;72838;51.820;4.260;2023-09-30T10:51:57;102753.59;;;20.38;67.02
83023;BME280;72838;51.820;4.260;2023-09-30T10:54:44;102752.22;;;20.34;65.56
83023;BME280;72838;51.820;4.260;2023-09-30T10:57:12;102785.47;;;20.47;66.30
83023;BME280;72838;51.820;4.260;2023-09-30T10:59:40;102709.66;;;20.24;65.95
83023;BME280;72838;51.820;4.260;2023-09-30T11:02:50;102762.19;;;20.57;67.52
83023;BME280;72838;51.820;4.260;2023-09-30T11:05:22;102744.13;;;20.43;67.13
83023;BME280;72838;51.820;4.260;2023-09-30T11:07:48;102714.59;;;20.37;64.71
83023;BME280;72838;51.820;4.260;2023-09-30T11:10:19;102749.97;;;20.72;66.00
83023;BME280;72838;51.820;4.260;2023-09-30T11:13:13;102750.94;;;20.71;65.87
83023;BME280;72838;51.820;4.260;2023-09-30T11:18:18;102740.19;;;20.89;66.65
83023;BME280;72838;51.820;4.260;2023-09-30T11:20:44;102750.63;;;20.74;66.11
83023;BME280;72838;51.820;4.260;2023-09-30T11:23:13;102671.34;;;19.99;66.34
83023;BME280;72838;51.820;4.260;2023-09-30T11:25:41;102720.63;;;20.47;66.89
83023;BME280;72838;51.820;4.260;2023-09-30T11:28:16;102590.38;;;19.67;66.01
83023;BME280;72838;51.820;4.260;2023-09-30T11:30:59;102740.03;;;20.57;64.35
83023;BME280;72838;51.820;4.260;2023-09-30T11:33:25;102764.19;;;20.81;66.05
83023;BME280;72838;51.820;4.260;2023-09-30T11:36:04;102710.66;;;20.49;65.33
83023;BME280;72838;51.820;4.260;2023-09-30T11:38:31;102744.97;;;20.77;63.79
83023;BME280;72838;51.820;4.260;2023-09-30T11:41:01;102714.34;;;20.89;64.81
83023;BME280;72838;51.820;4.260;2023-09-30T11:43:32;102732.03;;;20.90;64.04
83023;BME280;72838;51.820;4.260;2023-09-30T11:46:12;102735.38;;;20.92;65.58
83023;BME280;72838;51.820;4.260;2023-09-30T11:48:55;102736.13;;;21.11;63.84
83023;BME280;72838;51.820;4.260;2023-09-30T11:51:21;102678.66;;;20.90;63.38
83023;BME280;72838;51.820;4.260;2023-09-30T11:53:49;102684.47;;;20.86;63.60
83023;BME280;72838;51.820;4.260;2023-09-30T11:56:16;102652.34;;;20.54;62.63
83023;BME280;72838;51.820;4.260;2023-09-30T11:58:41;102720.81;;;20.79;62.68
83023;BME280;72838;51.820;4.260;2023-09-30T12:01:07;102702.78;;;20.39;63.91
83023;BME280;72838;51.820;4.260;2023-09-30T12:03:32;102667.47;;;20.20;62.89
83023;BME280;72838;51.820;4.260;2023-09-30T12:06:02;102708.38;;;20.10;63.98
83023;BME280;72838;51.820;4.260;2023-09-30T12:08:27;102716.78;;;20.41;63.11
83023;BME280;72838;51.820;4.260;2023-09-30T12:10:54;102675.06;;;20.66;63.23
83023;BME280;72838;51.820;4.260;2023-09-30T12:13:20;102670.00;;;20.96;59.72
83023;BME280;72838;51.820;4.260;2023-09-30T12:15:46;102711.75;;;21.06;57.32
83023;BME280;72838;51.820;4.260;2023-09-30T12:18:11;102679.47;;;21.41;56.76
83023;BME280;72838;51.820;4.260;2023-09-30T12:20:42;102660.28;;;21.53;55.53
83023;BME280;72838;51.820;4.260;2023-09-30T12:23:09;102618.03;;;21.25;55.49
83023;BME280;72838;51.820;4.260;2023-09-30T12:25:35;102712.88;;;21.69;54.81
83023;BME280;72838;51.820;4.260;2023-09-30T12:28:02;102717.38;;;21.68;53.77
83023;BME280;72838;51.820;4.260;2023-09-30T12:30:29;102668.09;;;20.73;54.04
83023;BME280;72838;51.820;4.260;2023-09-30T12:32:57;102699.03;;;20.91;55.47
83023;BME280;72838;51.820;4.260;2023-09-30T12:35:22;102641.69;;;20.54;54.87
83023;BME280;72838;51.820;4.260;2023-09-30T12:37:50;102714.81;;;20.77;54.07
83023;BME280;72838;51.820;4.260;2023-09-30T12:40:16;102682.28;;;20.40;55.88
83023;BME280;72838;51.820;4.260;2023-09-30T12:42:43;102715.41;;;20.63;57.53
83023;BME280;72838;51.820;4.260;2023-09-30T12:45:08;102694.13;;;20.45;56.77
83023;BME280;72838;51.820;4.260;2023-09-30T12:47:34;102705.19;;;20.50;56.95
83023;BME280;72838;51.820;4.260;2023-09-30T12:49:59;102723.59;;;20.36;57.94
83023;BME280;72838;51.820;4.260;2023-09-30T12:52:28;102547.13;;;19.29;58.80
83023;BME280;72838;51.820;4.260;2023-09-30T12:54:55;102683.09;;;20.40;59.11
83023;BME280;72838;51.820;4.260;2023-09-30T12:57:21;102535.31;;;19.50;57.36
83023;BME280;72838;51.820;4.260;2023-09-30T12:59:46;102718.88;;;20.63;58.96
83023;BME280;72838;51.820;4.260;2023-09-30T13:02:14;102739.22;;;20.56;60.43
83023;BME280;72838;51.820;4.260;2023-09-30T13:04:42;102626.50;;;19.95;61.82
83023;BME280;72838;51.820;4.260;2023-09-30T13:07:10;102700.41;;;20.36;61.92
83023;BME280;72838;51.820;4.260;2023-09-30T13:09:38;102694.59;;;20.15;62.32
83023;BME280;72838;51.820;4.260;2023-09-30T13:12:04;102514.78;;;18.81;62.54
83023;BME280;72838;51.820;4.260;2023-09-30T13:14:29;102679.75;;;20.12;60.04
83023;BME280;72838;51.820;4.260;2023-09-30T13:16:54;102672.53;;;20.05;62.40
83023;BME280;72838;51.820;4.260;2023-09-30T13:19:20;102655.59;;;20.14;62.23
83023;BME280;72838;51.820;4.260;2023-09-30T13:21:49;102670.09;;;20.37;61.18